createdAt,value
2022-10-22T00:00:17.185Z,95.63
2022-10-22T00:02:44.633Z,95.58
2022-10-22T00:05:11.802Z,95.22
2022-10-22T00:07:38.919Z,95.47
2022-10-22T00:10:08.172Z,95.68
2022-10-22T00:12:35.282Z,95.44
2022-10-22T00:15:02.769Z,95.20
2022-10-22T00:17:29.525Z,95.52
2022-10-22T00:19:56.329Z,96.08
2022-10-22T00:22:23.114Z,96.71
2022-10-22T00:24:49.941Z,97.36
2022-10-22T00:27:16.861Z,96.79
2022-10-22T00:29:43.755Z,96.18
2022-10-22T00:32:10.652Z,95.27
2022-10-22T00:34:37.507Z,95.50
2022-10-22T00:37:04.465Z,95.23
2022-10-22T00:39:31.233Z,95.19
2022-10-22T00:41:58.500Z,95.57
2022-10-22T00:45:02.336Z,96.35
2022-10-22T00:47:36.564Z,97.11
2022-10-22T00:50:06.738Z,97.98
2022-10-22T00:52:33.812Z,97.84
2022-10-22T00:55:01.646Z,98.49
2022-10-22T00:57:29.099Z,99.00
2022-10-22T00:59:57.402Z,99.26
2022-10-22T01:02:24.374Z,99.77
2022-10-22T01:04:51.244Z,99.55
2022-10-22T01:07:20.406Z,99.49
2022-10-22T01:10:10.859Z,99.55
2022-10-22T01:13:07.080Z,99.13
2022-10-22T01:16:00.374Z,98.58
2022-10-22T01:18:42.060Z,99.22
2022-10-22T01:21:11.961Z,99.02
2022-10-22T01:23:57.559Z,99.90
2022-10-22T01:29:21.601Z,99.40
2022-10-22T01:32:02.875Z,98.99
2022-10-22T01:34:31.973Z,98.94
2022-10-22T01:37:00.543Z,98.59
2022-10-22T01:39:29.552Z,98.81
2022-10-22T01:41:57.375Z,99.40
2022-10-22T01:44:28.631Z,99.89
2022-10-22T01:47:05.164Z,99.80
2022-10-22T01:50:04.588Z,100.00
2022-10-22T01:52:42.828Z,99.92
2022-10-22T01:55:20.457Z,99.51
2022-10-22T01:58:22.662Z,99.82
2022-10-22T02:01:19.183Z,100.00
2022-10-22T02:04:05.552Z,100.00
2022-10-22T02:06:34.047Z,100.00
2022-10-22T02:09:02.701Z,99.58
2022-10-22T02:11:30.075Z,99.93
2022-10-22T02:14:00.406Z,99.74
2022-10-22T02:16:49.528Z,99.54
2022-10-22T02:19:23.659Z,99.63
2022-10-22T02:21:50.701Z,100.00
2022-10-22T02:24:18.692Z,100.00
2022-10-22T02:27:04.180Z,100.00
2022-10-22T02:29:35.170Z,100.00
2022-10-22T02:32:06.028Z,100.00
2022-10-22T02:34:33.428Z,100.00
2022-10-22T02:37:02.804Z,100.00
2022-10-22T02:39:31.610Z,100.00
2022-10-22T02:41:58.531Z,100.00
2022-10-22T02:44:25.309Z,100.00
2022-10-22T02:46:52.336Z,100.00
2022-10-22T02:49:19.201Z,100.00
2022-10-22T02:51:46.044Z,100.00
2022-10-22T02:54:12.920Z,100.00
2022-10-22T02:56:39.884Z,100.00
2022-10-22T02:59:06.763Z,100.00
2022-10-22T03:01:33.755Z,100.00
2022-10-22T03:04:00.646Z,100.00
2022-10-22T03:06:27.533Z,100.00
2022-10-22T03:08:56.011Z,100.00
2022-10-22T03:11:22.881Z,100.00
2022-10-22T03:13:49.660Z,100.00
2022-10-22T03:16:16.454Z,100.00
2022-10-22T03:18:43.319Z,100.00
2022-10-22T03:21:13.135Z,100.00
2022-10-22T03:23:43.960Z,100.00
2022-10-22T03:26:13.710Z,100.00
2022-10-22T03:28:42.591Z,100.00
2022-10-22T03:31:10.805Z,100.00
2022-10-22T03:33:37.587Z,100.00
2022-10-22T03:36:04.742Z,100.00
2022-10-22T03:38:31.772Z,100.00
2022-10-22T03:40:59.041Z,100.00
2022-10-22T03:43:28.575Z,100.00
2022-10-22T03:45:57.489Z,100.00
2022-10-22T03:48:24.383Z,100.00
2022-10-22T03:50:51.306Z,100.00
2022-10-22T03:53:18.171Z,100.00
2022-10-22T03:55:44.976Z,100.00
2022-10-22T03:58:11.884Z,100.00
2022-10-22T04:00:38.686Z,100.00
2022-10-22T04:03:05.544Z,100.00
2022-10-22T04:05:34.001Z,100.00
2022-10-22T04:08:01.123Z,100.00
2022-10-22T04:10:27.902Z,100.00
2022-10-22T04:12:54.735Z,100.00
2022-10-22T04:15:21.627Z,100.00
2022-10-22T04:17:48.442Z,100.00
2022-10-22T04:20:15.282Z,100.00
2022-10-22T04:22:42.239Z,100.00
2022-10-22T04:25:09.495Z,100.00
2022-10-22T04:27:36.965Z,100.00
2022-10-22T04:30:05.202Z,100.00
2022-10-22T04:32:32.022Z,100.00
2022-10-22T04:34:58.813Z,100.00
2022-10-22T04:37:25.662Z,100.00
2022-10-22T04:39:52.452Z,100.00
2022-10-22T04:42:19.239Z,100.00
2022-10-22T04:44:46.581Z,100.00
2022-10-22T04:47:13.445Z,100.00
2022-10-22T04:49:40.600Z,100.00
2022-10-22T04:52:07.569Z,99.73
2022-10-22T04:54:34.429Z,99.42
2022-10-22T04:57:01.423Z,99.30
2022-10-22T04:59:28.281Z,99.72
2022-10-22T05:01:55.144Z,100.00
2022-10-22T05:04:21.950Z,100.00
2022-10-22T05:06:48.823Z,100.00
2022-10-22T05:09:18.841Z,100.00
2022-10-22T05:11:51.402Z,100.00
2022-10-22T05:14:23.999Z,100.00
2022-10-22T05:16:52.160Z,100.00
2022-10-22T05:19:24.278Z,100.00
2022-10-22T05:21:52.997Z,100.00
2022-10-22T05:24:21.010Z,100.00
2022-10-22T05:26:52.746Z,100.00
2022-10-22T05:29:20.075Z,100.00
2022-10-22T05:31:47.014Z,100.00
2022-10-22T05:34:13.944Z,100.00
2022-10-22T05:36:41.912Z,100.00
2022-10-22T05:39:08.768Z,100.00
2022-10-22T05:41:36.581Z,100.00
2022-10-22T05:44:04.273Z,100.00
2022-10-22T05:46:35.569Z,100.00
2022-10-22T05:49:05.090Z,100.00
2022-10-22T05:51:32.957Z,100.00
2022-10-22T05:54:02.115Z,100.00
2022-10-22T05:56:32.164Z,99.44
2022-10-22T05:58:59.507Z,99.10
2022-10-22T06:01:35.266Z,98.73
2022-10-22T06:04:05.227Z,99.22
2022-10-22T06:06:35.325Z,98.51
2022-10-22T06:09:10.399Z,98.19
2022-10-22T06:11:37.351Z,98.15
2022-10-22T06:14:04.782Z,98.61
2022-10-22T06:16:32.191Z,97.69
2022-10-22T06:19:02.219Z,97.52
2022-10-22T06:21:30.234Z,97.14
2022-10-22T06:23:58.131Z,96.65
2022-10-22T06:26:25.552Z,95.95
2022-10-22T06:28:53.106Z,94.25
2022-10-22T06:31:20.014Z,94.00
2022-10-22T06:33:46.861Z,93.61
2022-10-22T06:36:19.592Z,95.03
2022-10-22T06:38:46.579Z,93.34
2022-10-22T06:41:18.559Z,96.81
2022-10-22T06:43:47.077Z,100.00
2022-10-22T06:46:19.179Z,92.68
2022-10-22T06:48:55.433Z,90.49
2022-10-22T06:51:22.611Z,89.03
2022-10-22T06:53:49.499Z,88.74
2022-10-22T06:56:19.308Z,88.44
2022-10-22T06:58:51.049Z,88.27
2022-10-22T07:01:20.705Z,87.66
2022-10-22T07:03:49.947Z,86.91
2022-10-22T07:06:16.872Z,85.70
2022-10-22T07:08:44.142Z,84.98
2022-10-22T07:11:19.828Z,84.43
2022-10-22T07:13:47.684Z,83.96
2022-10-22T07:16:15.320Z,83.17
2022-10-22T07:18:42.881Z,82.63
2022-10-22T07:21:11.694Z,82.10
2022-10-22T07:23:39.189Z,82.39
2022-10-22T07:26:08.721Z,82.06
2022-10-22T07:28:38.973Z,81.60
2022-10-22T07:31:06.741Z,81.72
2022-10-22T07:33:33.678Z,80.92
2022-10-22T07:36:02.231Z,80.43
2022-10-22T07:38:31.740Z,78.84
2022-10-22T07:41:02.630Z,78.38
2022-10-22T07:43:29.956Z,77.63
2022-10-22T07:45:56.821Z,76.96
2022-10-22T07:48:24.013Z,76.02
2022-10-22T07:50:52.266Z,75.48
2022-10-22T07:53:19.867Z,74.82
2022-10-22T07:55:53.151Z,73.23
2022-10-22T07:58:21.491Z,72.23
2022-10-22T08:00:48.858Z,70.49
2022-10-22T08:03:17.149Z,69.59
2022-10-22T08:05:44.629Z,69.82
2022-10-22T08:08:13.131Z,69.37
2022-10-22T08:10:40.183Z,67.66
2022-10-22T08:13:08.320Z,66.83
2022-10-22T08:15:35.332Z,66.59
2022-10-22T08:18:02.548Z,65.99
2022-10-22T08:20:30.613Z,63.90
2022-10-22T08:22:58.254Z,63.79
2022-10-22T08:25:25.673Z,63.36
2022-10-22T08:27:52.546Z,61.98
2022-10-22T08:30:20.256Z,62.02
2022-10-22T08:32:49.310Z,61.39
2022-10-22T08:35:18.492Z,60.68
2022-10-22T08:37:45.519Z,60.12
2022-10-22T08:40:23.350Z,59.29
2022-10-22T08:43:10.551Z,58.37
2022-10-22T08:46:07.927Z,61.04
2022-10-22T08:48:40.552Z,57.37
2022-10-22T08:51:15.463Z,56.70
2022-10-22T08:54:08.828Z,56.14
2022-10-22T08:56:37.225Z,59.25
2022-10-22T08:59:15.002Z,57.28
2022-10-22T09:01:51.784Z,59.11
2022-10-22T09:04:49.047Z,54.67
2022-10-22T09:07:16.119Z,52.81
2022-10-22T09:09:49.315Z,52.36
2022-10-22T09:12:25.758Z,53.83
2022-10-22T09:14:54.982Z,53.40
2022-10-22T09:17:35.573Z,51.03
2022-10-22T09:20:26.976Z,49.68
2022-10-22T09:23:31.762Z,48.94
2022-10-22T09:26:00.103Z,49.08
2022-10-22T09:28:26.984Z,47.84
2022-10-22T09:30:53.940Z,47.76
2022-10-22T09:33:28.257Z,46.97
2022-10-22T09:35:58.586Z,46.83
2022-10-22T09:38:34.433Z,46.87
2022-10-22T09:41:04.196Z,45.69
2022-10-22T09:43:32.206Z,45.34
2022-10-22T09:46:04.817Z,45.90
2022-10-22T09:48:39.619Z,44.17
2022-10-22T09:51:15.075Z,45.53
2022-10-22T09:53:44.684Z,45.22
2022-10-22T09:56:41.891Z,43.99
2022-10-22T09:59:26.050Z,44.41
2022-10-22T10:02:13.599Z,44.36
2022-10-22T10:04:51.584Z,45.02
2022-10-22T10:07:21.094Z,45.38
2022-10-22T10:09:48.670Z,45.98
2022-10-22T10:12:34.107Z,46.66
2022-10-22T10:15:28.536Z,46.28
2022-10-22T10:18:09.765Z,45.00
2022-10-22T10:21:08.521Z,45.04
2022-10-22T10:23:47.241Z,44.29
2022-10-22T10:26:43.467Z,43.65
2022-10-22T10:32:24.431Z,43.39
2022-10-22T10:35:15.944Z,42.72
2022-10-22T10:38:27.289Z,42.92
2022-10-22T10:41:26.482Z,42.19
2022-10-22T10:43:59.269Z,42.72
2022-10-22T10:46:50.756Z,42.18
2022-10-22T10:49:21.406Z,42.08
2022-10-22T10:51:59.723Z,41.84
2022-10-22T10:57:35.035Z,42.26
2022-10-22T11:00:27.927Z,40.93
2022-10-22T11:02:58.818Z,40.34
2022-10-22T11:05:28.655Z,40.66
2022-10-22T11:08:06.492Z,40.87
2022-10-22T11:10:41.116Z,40.14
2022-10-22T11:13:58.194Z,40.41
2022-10-22T11:16:31.114Z,39.40
2022-10-22T11:19:49.615Z,39.33
2022-10-22T11:22:26.985Z,39.54
2022-10-22T11:25:02.963Z,39.74
2022-10-22T11:27:40.655Z,39.33
2022-10-22T11:30:16.789Z,39.43
2022-10-22T11:32:50.010Z,38.44
2022-10-22T11:35:25.791Z,38.77
2022-10-22T11:37:56.801Z,38.44
2022-10-22T11:40:29.313Z,38.75
2022-10-22T11:43:05.397Z,38.29
2022-10-22T11:45:37.877Z,37.58
2022-10-22T11:48:19.171Z,37.56
2022-10-22T11:50:56.755Z,37.47
2022-10-22T11:53:32.294Z,37.15
2022-10-22T11:56:23.419Z,37.72
2022-10-22T11:58:53.949Z,37.76
2022-10-22T12:01:25.085Z,37.78
2022-10-22T12:03:54.132Z,37.51
2022-10-22T12:06:24.429Z,37.17
2022-10-22T12:08:57.443Z,37.67
2022-10-22T12:11:41.487Z,36.89
2022-10-22T12:14:29.765Z,36.81
2022-10-22T12:17:09.970Z,36.48
2022-10-22T12:19:45.856Z,36.53
2022-10-22T12:22:12.777Z,36.44
2022-10-22T12:24:46.892Z,36.54
2022-10-22T12:27:38.668Z,36.87
2022-10-22T12:30:21.503Z,35.38
2022-10-22T12:32:48.467Z,35.46
2022-10-22T12:35:18.535Z,35.00
2022-10-22T12:37:49.180Z,35.19
2022-10-22T12:40:23.320Z,35.81
2022-10-22T12:42:57.293Z,35.32
2022-10-22T12:45:28.139Z,35.73
2022-10-22T12:48:04.866Z,36.32
2022-10-22T12:50:38.305Z,35.05
2022-10-22T12:53:17.044Z,35.49
2022-10-22T12:55:51.503Z,34.68
2022-10-22T12:58:25.418Z,34.19
2022-10-22T13:00:58.556Z,34.34
2022-10-22T13:03:33.308Z,34.41
2022-10-22T13:06:34.038Z,33.40
2022-10-22T13:09:27.841Z,33.44
2022-10-22T13:12:01.841Z,33.76
2022-10-22T13:14:33.570Z,34.00
2022-10-22T13:17:42.397Z,34.39
2022-10-22T13:20:23.507Z,33.02
2022-10-22T13:23:02.844Z,32.96
2022-10-22T13:25:35.178Z,33.65
2022-10-22T13:28:20.369Z,32.92
2022-10-22T13:30:59.532Z,33.05
2022-10-22T13:33:42.233Z,33.50
2022-10-22T13:36:16.322Z,33.55
2022-10-22T13:38:44.761Z,32.72
2022-10-22T13:41:25.279Z,33.60
2022-10-22T13:43:53.542Z,33.38
2022-10-22T13:46:21.609Z,33.60
2022-10-22T13:48:50.877Z,33.59
2022-10-22T13:51:20.663Z,34.14
2022-10-22T13:53:49.716Z,34.07
2022-10-22T13:56:19.640Z,34.54
2022-10-22T13:58:47.787Z,34.83
2022-10-22T14:01:26.591Z,35.30
2022-10-22T14:03:54.716Z,35.49
2022-10-22T14:06:22.799Z,34.85
2022-10-22T14:08:55.246Z,34.84
2022-10-22T14:11:22.282Z,34.28
2022-10-22T14:13:49.135Z,34.03
2022-10-22T14:16:21.906Z,33.68
2022-10-22T14:18:49.394Z,33.17
2022-10-22T14:21:17.967Z,32.77
2022-10-22T14:23:47.068Z,32.79
2022-10-22T14:26:40.624Z,32.87
2022-10-22T14:29:09.871Z,32.74
2022-10-22T14:34:27.463Z,33.45
2022-10-22T14:36:54.772Z,33.53
2022-10-22T14:39:21.856Z,33.37
2022-10-22T14:41:48.721Z,32.97
2022-10-22T14:44:15.625Z,33.40
2022-10-22T14:46:44.407Z,33.80
2022-10-22T14:49:11.681Z,34.37
2022-10-22T14:51:39.732Z,34.73
2022-10-22T14:54:07.164Z,35.44
2022-10-22T14:56:34.120Z,35.67
2022-10-22T14:59:01.068Z,36.14
2022-10-22T15:01:27.873Z,36.99
2022-10-22T15:03:54.916Z,37.71
2022-10-22T15:06:21.739Z,38.28
2022-10-22T15:08:48.681Z,38.37
2022-10-22T15:11:16.407Z,39.12
2022-10-22T15:13:44.053Z,39.13
2022-10-22T15:16:13.203Z,39.58
2022-10-22T15:18:40.058Z,39.66
2022-10-22T15:21:14.429Z,40.44
2022-10-22T15:23:41.431Z,40.58
2022-10-22T15:26:09.681Z,40.55
2022-10-22T15:28:38.184Z,40.87
2022-10-22T15:31:05.522Z,41.39
2022-10-22T15:33:32.417Z,42.02
2022-10-22T15:35:59.698Z,42.08
2022-10-22T15:41:16.616Z,43.56
2022-10-22T15:43:43.465Z,44.95
2022-10-22T15:46:16.638Z,45.55
2022-10-22T15:48:43.776Z,46.15
2022-10-22T15:51:13.100Z,46.64
2022-10-22T15:53:40.512Z,46.68
2022-10-22T15:56:07.954Z,47.37
2022-10-22T15:58:34.975Z,49.03
2022-10-22T16:01:11.047Z,50.10
2022-10-22T16:03:38.233Z,50.60
2022-10-22T16:06:07.498Z,51.25
2022-10-22T16:08:35.008Z,52.70
2022-10-22T16:11:02.010Z,53.83
2022-10-22T16:13:28.918Z,54.73
2022-10-22T16:15:55.928Z,54.98
2022-10-22T16:18:23.820Z,56.06
2022-10-22T16:20:50.742Z,58.19
2022-10-22T16:23:19.172Z,59.34
2022-10-22T16:25:46.838Z,59.82
2022-10-22T16:28:14.364Z,59.91
2022-10-22T16:30:41.885Z,59.80
2022-10-22T16:33:10.116Z,59.95
2022-10-22T16:35:41.563Z,60.72
2022-10-22T16:38:10.422Z,60.68
2022-10-22T16:40:37.362Z,60.77
2022-10-22T16:43:04.248Z,60.94
2022-10-22T16:45:31.215Z,61.24
2022-10-22T16:47:58.267Z,61.01
2022-10-22T16:50:25.053Z,60.88
2022-10-22T16:52:51.971Z,61.24
2022-10-22T16:55:18.894Z,61.25
2022-10-22T16:57:51.849Z,61.94
2022-10-22T17:00:20.518Z,62.10
2022-10-22T17:02:52.749Z,61.91
2022-10-22T17:05:19.977Z,61.64
2022-10-22T17:07:46.860Z,61.50
2022-10-22T17:10:13.818Z,61.47
2022-10-22T17:12:41.526Z,61.57
2022-10-22T17:15:08.951Z,61.24
2022-10-22T17:17:35.875Z,60.93
2022-10-22T17:20:02.809Z,60.72
2022-10-22T17:22:29.733Z,60.95
2022-10-22T17:25:16.280Z,62.08
2022-10-22T17:27:44.349Z,63.14
2022-10-22T17:30:24.796Z,63.65
2022-10-22T17:32:55.023Z,64.06
2022-10-22T17:35:21.923Z,64.81
2022-10-22T17:37:48.876Z,64.93
2022-10-22T17:40:15.925Z,65.03
2022-10-22T17:42:43.180Z,65.46
2022-10-22T17:45:14.411Z,65.69
2022-10-22T17:50:48.207Z,66.31
2022-10-22T17:53:17.944Z,67.28
2022-10-22T17:55:46.955Z,68.15
2022-10-22T17:58:13.704Z,67.99
2022-10-22T18:00:40.577Z,67.73
2022-10-22T18:03:10.953Z,68.04
2022-10-22T18:05:37.767Z,68.16
2022-10-22T18:08:07.780Z,68.14
2022-10-22T18:10:40.108Z,68.69
2022-10-22T18:13:09.769Z,68.33
2022-10-22T18:15:36.706Z,69.06
2022-10-22T18:18:04.549Z,69.60
2022-10-22T18:20:32.921Z,69.84
2022-10-22T18:23:00.938Z,69.72
2022-10-22T18:25:27.841Z,70.58
2022-10-22T18:27:54.748Z,70.45
2022-10-22T18:30:21.502Z,70.78
2022-10-22T18:32:48.336Z,71.61
2022-10-22T18:35:15.238Z,71.61
2022-10-22T18:37:42.834Z,71.45
2022-10-22T18:40:14.731Z,71.75
2022-10-22T18:42:47.648Z,72.02
2022-10-22T18:45:14.564Z,72.34
2022-10-22T18:47:41.863Z,73.23
2022-10-22T18:50:09.507Z,73.32
2022-10-22T18:52:36.409Z,74.30
2022-10-22T18:55:03.595Z,74.66
2022-10-22T18:57:30.700Z,74.89
2022-10-22T19:00:00.093Z,74.01
2022-10-22T19:02:27.171Z,73.82
2022-10-22T19:04:54.074Z,73.53
2022-10-22T19:07:20.830Z,74.42
2022-10-22T19:09:47.750Z,75.09
2022-10-22T19:12:15.972Z,74.78
2022-10-22T19:14:43.007Z,74.15
2022-10-22T19:17:09.853Z,74.05
2022-10-22T19:19:36.824Z,74.02
2022-10-22T19:22:04.807Z,73.96
2022-10-22T19:24:31.786Z,73.87
2022-10-22T19:27:01.185Z,73.59
2022-10-22T19:29:28.269Z,73.89
2022-10-22T19:31:55.718Z,73.52
2022-10-22T19:34:22.673Z,73.54
2022-10-22T19:36:51.894Z,73.80
2022-10-22T19:39:19.038Z,74.03
2022-10-22T19:41:45.996Z,74.27
2022-10-22T19:44:12.826Z,74.29
2022-10-22T19:46:39.615Z,74.03
2022-10-22T19:49:06.642Z,73.52
2022-10-22T19:51:34.632Z,73.24
2022-10-22T19:54:08.094Z,72.91
2022-10-22T19:56:37.784Z,72.70
2022-10-22T19:59:08.243Z,72.78
2022-10-22T20:01:35.205Z,72.57
2022-10-22T20:04:02.207Z,72.21
2022-10-22T20:06:30.032Z,72.15
2022-10-22T20:08:57.359Z,72.97
2022-10-22T20:11:30.045Z,72.82
2022-10-22T20:13:58.026Z,73.23
2022-10-22T20:16:30.019Z,73.71
2022-10-22T20:19:02.162Z,74.00
2022-10-22T20:21:29.416Z,74.48
2022-10-22T20:23:57.529Z,74.28
2022-10-22T20:26:28.250Z,74.96
2022-10-22T20:28:57.201Z,74.77
2022-10-22T20:31:27.201Z,74.06
2022-10-22T20:33:56.698Z,75.24
2022-10-22T20:36:24.485Z,75.66
2022-10-22T20:38:51.769Z,76.37
2022-10-22T20:41:23.147Z,76.56
2022-10-22T20:43:51.645Z,76.41
2022-10-22T20:46:22.545Z,76.60
2022-10-22T20:48:55.483Z,76.92
2022-10-22T20:51:22.744Z,77.26
2022-10-22T20:53:49.791Z,77.51
2022-10-22T20:56:18.068Z,77.45
2022-10-22T20:58:48.728Z,77.00
2022-10-22T21:01:24.481Z,77.47
2022-10-22T21:03:52.703Z,78.18
2022-10-22T21:06:23.514Z,77.82
2022-10-22T21:08:51.754Z,78.02
2022-10-22T21:11:19.616Z,77.89
2022-10-22T21:13:46.709Z,78.83
2022-10-22T21:16:15.243Z,78.57
2022-10-22T21:18:42.037Z,78.58
2022-10-22T21:21:09.539Z,79.47
2022-10-22T21:23:37.076Z,79.46
2022-10-22T21:26:04.928Z,78.30
2022-10-22T21:28:35.566Z,78.31
2022-10-22T21:31:05.027Z,79.37
2022-10-22T21:33:35.020Z,79.80
2022-10-22T21:36:01.887Z,79.42
2022-10-22T21:38:28.786Z,79.57
2022-10-22T21:40:55.668Z,79.19
2022-10-22T21:43:22.449Z,79.27
2022-10-22T21:45:49.277Z,79.44
2022-10-22T21:48:16.171Z,79.17
2022-10-22T21:50:44.299Z,78.97
2022-10-22T21:53:12.284Z,79.22
2022-10-22T21:55:42.200Z,79.86
2022-10-22T21:58:09.222Z,79.94
2022-10-22T22:00:36.396Z,79.80
2022-10-22T22:03:06.035Z,79.84
2022-10-22T22:05:32.864Z,80.12
2022-10-22T22:07:59.803Z,80.33
2022-10-22T22:10:26.821Z,80.53
2022-10-22T22:12:53.659Z,80.77
2022-10-22T22:15:20.819Z,80.38
2022-10-22T22:17:47.711Z,80.41
2022-10-22T22:20:14.621Z,80.33
2022-10-22T22:22:41.797Z,80.50
2022-10-22T22:25:09.101Z,80.70
2022-10-22T22:27:36.013Z,81.09
2022-10-22T22:30:03.675Z,81.39
2022-10-22T22:32:31.561Z,81.89
2022-10-22T22:34:58.498Z,82.50
2022-10-22T22:37:27.447Z,83.05
2022-10-22T22:39:54.552Z,83.46
2022-10-22T22:42:21.396Z,83.78
2022-10-22T22:44:48.228Z,84.38
2022-10-22T22:47:15.115Z,84.48
2022-10-22T22:49:41.893Z,84.22
2022-10-22T22:52:09.940Z,84.44
2022-10-22T22:54:36.845Z,84.34
2022-10-22T22:57:03.723Z,84.51
2022-10-22T22:59:30.567Z,84.94
2022-10-22T23:01:57.703Z,85.35
2022-10-22T23:04:25.341Z,85.10
2022-10-22T23:06:52.789Z,85.30
2022-10-22T23:12:07.827Z,85.05
2022-10-22T23:14:34.667Z,85.50
2022-10-22T23:17:01.504Z,84.65
2022-10-22T23:19:28.333Z,85.41
2022-10-22T23:21:56.337Z,84.97
2022-10-22T23:24:26.400Z,85.29
2022-10-22T23:26:54.724Z,85.50
2022-10-22T23:29:24.856Z,85.38
2022-10-22T23:31:52.555Z,85.66
2022-10-22T23:34:22.258Z,86.20
2022-10-22T23:36:49.986Z,86.40
2022-10-22T23:39:20.687Z,86.12
2022-10-22T23:41:47.469Z,87.50
2022-10-22T23:44:14.415Z,87.96
2022-10-22T23:46:41.908Z,87.99
2022-10-22T23:49:10.083Z,88.08
2022-10-22T23:51:38.135Z,87.76
2022-10-22T23:54:11.324Z,87.15
2022-10-22T23:56:38.288Z,86.73
2022-10-22T23:59:05.688Z,86.62
